sensor_id;sensor_type;location;lat;lon;timestamp;P1;durP1;ratioP1;P2;durP2;ratioP2
61356;SDS011;47227;46.752;23.576;2022-12-26T00:01:54;10.00;;;6.80;;
61356;SDS011;47227;46.752;23.576;2022-12-26T00:04:21;13.50;;;6.70;;
61356;SDS011;47227;46.752;23.576;2022-12-26T00:07:08;12.30;;;7.30;;
61356;SDS011;47227;46.752;23.576;2022-12-26T00:09:35;14.20;;;7.40;;
61356;SDS011;47227;46.752;23.576;2022-12-26T00:12:01;11.80;;;8.70;;
61356;SDS011;47227;46.752;23.576;2022-12-26T00:14:28;7.80;;;6.00;;
61356;SDS011;47227;46.752;23.576;2022-12-26T00:16:54;11.30;;;6.00;;
61356;SDS011;47227;46.752;23.576;2022-12-26T00:19:21;11.10;;;5.80;;
61356;SDS011;47227;46.752;23.576;2022-12-26T00:21:47;9.20;;;6.50;;
61356;SDS011;47227;46.752;23.576;2022-12-26T00:24:14;7.50;;;5.40;;
61356;SDS011;47227;46.752;23.576;2022-12-26T00:26:40;7.80;;;5.30;;
61356;SDS011;47227;46.752;23.576;2022-12-26T00:29:07;9.10;;;5.40;;
61356;SDS011;47227;46.752;23.576;2022-12-26T00:31:34;7.60;;;6.00;;
61356;SDS011;47227;46.752;23.576;2022-12-26T00:34:01;10.10;;;6.40;;
61356;SDS011;47227;46.752;23.576;2022-12-26T00:36:29;9.30;;;6.30;;
61356;SDS011;47227;46.752;23.576;2022-12-26T00:38:58;10.30;;;7.60;;
61356;SDS011;47227;46.752;23.576;2022-12-26T00:41:28;11.20;;;7.20;;
61356;SDS011;47227;46.752;23.576;2022-12-26T00:43:54;15.30;;;9.90;;
61356;SDS011;47227;46.752;23.576;2022-12-26T00:46:25;20.00;;;12.60;;
61356;SDS011;47227;46.752;23.576;2022-12-26T00:48:52;22.80;;;13.00;;
61356;SDS011;47227;46.752;23.576;2022-12-26T00:51:19;26.90;;;15.70;;
61356;SDS011;47227;46.752;23.576;2022-12-26T00:53:46;34.20;;;18.50;;
61356;SDS011;47227;46.752;23.576;2022-12-26T00:56:13;33.30;;;19.80;;
61356;SDS011;47227;46.752;23.576;2022-12-26T00:58:40;32.60;;;19.50;;
61356;SDS011;47227;46.752;23.576;2022-12-26T01:01:11;29.40;;;17.50;;
61356;SDS011;47227;46.752;23.576;2022-12-26T01:03:40;29.20;;;17.20;;
61356;SDS011;47227;46.752;23.576;2022-12-26T01:06:08;25.00;;;16.60;;
61356;SDS011;47227;46.752;23.576;2022-12-26T01:08:35;31.50;;;17.90;;
61356;SDS011;47227;46.752;23.576;2022-12-26T01:11:04;25.70;;;15.80;;
61356;SDS011;47227;46.752;23.576;2022-12-26T01:13:33;24.50;;;14.70;;
61356;SDS011;47227;46.752;23.576;2022-12-26T01:16:01;24.80;;;14.30;;
61356;SDS011;47227;46.752;23.576;2022-12-26T01:18:28;22.50;;;13.60;;
61356;SDS011;47227;46.752;23.576;2022-12-26T01:20:56;22.60;;;13.30;;
61356;SDS011;47227;46.752;23.576;2022-12-26T01:23:29;19.30;;;12.50;;
61356;SDS011;47227;46.752;23.576;2022-12-26T01:25:56;20.60;;;13.30;;
61356;SDS011;47227;46.752;23.576;2022-12-26T01:28:42;19.60;;;13.00;;
61356;SDS011;47227;46.752;23.576;2022-12-26T01:31:09;20.00;;;13.30;;
61356;SDS011;47227;46.752;23.576;2022-12-26T01:33:35;20.90;;;13.60;;
61356;SDS011;47227;46.752;23.576;2022-12-26T01:36:02;19.80;;;13.90;;
61356;SDS011;47227;46.752;23.576;2022-12-26T01:38:29;27.90;;;16.30;;
61356;SDS011;47227;46.752;23.576;2022-12-26T01:40:55;32.40;;;18.30;;
61356;SDS011;47227;46.752;23.576;2022-12-26T01:46:16;231.90;;;26.50;;
61356;SDS011;47227;46.752;23.576;2022-12-26T01:48:46;356.00;;;30.30;;
61356;SDS011;47227;46.752;23.576;2022-12-26T01:51:13;434.10;;;37.50;;
61356;SDS011;47227;46.752;23.576;2022-12-26T01:53:42;241.90;;;31.90;;
61356;SDS011;47227;46.752;23.576;2022-12-26T01:56:16;162.40;;;31.10;;
61356;SDS011;47227;46.752;23.576;2022-12-26T01:58:48;192.10;;;31.70;;
61356;SDS011;47227;46.752;23.576;2022-12-26T02:01:19;106.60;;;31.10;;
61356;SDS011;47227;46.752;23.576;2022-12-26T02:03:47;85.80;;;29.20;;
61356;SDS011;47227;46.752;23.576;2022-12-26T02:06:25;191.80;;;33.30;;
61356;SDS011;47227;46.752;23.576;2022-12-26T02:08:51;104.50;;;31.50;;
61356;SDS011;47227;46.752;23.576;2022-12-26T02:11:27;73.50;;;30.80;;
61356;SDS011;47227;46.752;23.576;2022-12-26T02:14:00;60.10;;;25.90;;
61356;SDS011;47227;46.752;23.576;2022-12-26T02:16:27;88.30;;;25.50;;
61356;SDS011;47227;46.752;23.576;2022-12-26T02:18:55;72.10;;;27.80;;
61356;SDS011;47227;46.752;23.576;2022-12-26T02:27:09;36.00;;;21.30;;
61356;SDS011;47227;46.752;23.576;2022-12-26T02:30:00;29.90;;;19.60;;
61356;SDS011;47227;46.752;23.576;2022-12-26T02:35:36;29.40;;;19.30;;
61356;SDS011;47227;46.752;23.576;2022-12-26T02:38:39;28.10;;;18.60;;
61356;SDS011;47227;46.752;23.576;2022-12-26T02:41:23;26.70;;;17.90;;
61356;SDS011;47227;46.752;23.576;2022-12-26T02:44:01;24.10;;;17.00;;
61356;SDS011;47227;46.752;23.576;2022-12-26T02:49:54;25.60;;;15.50;;
61356;SDS011;47227;46.752;23.576;2022-12-26T02:55:48;23.60;;;16.40;;
61356;SDS011;47227;46.752;23.576;2022-12-26T02:58:29;24.00;;;16.10;;
61356;SDS011;47227;46.752;23.576;2022-12-26T03:01:29;23.40;;;16.00;;
61356;SDS011;47227;46.752;23.576;2022-12-26T03:04:19;22.40;;;15.90;;
61356;SDS011;47227;46.752;23.576;2022-12-26T03:06:59;22.20;;;16.40;;
61356;SDS011;47227;46.752;23.576;2022-12-26T03:09:49;21.70;;;16.50;;
61356;SDS011;47227;46.752;23.576;2022-12-26T03:12:33;33.70;;;20.10;;
61356;SDS011;47227;46.752;23.576;2022-12-26T03:15:19;31.00;;;20.90;;
61356;SDS011;47227;46.752;23.576;2022-12-26T03:17:52;31.90;;;20.80;;
61356;SDS011;47227;46.752;23.576;2022-12-26T03:20:27;32.90;;;21.80;;
61356;SDS011;47227;46.752;23.576;2022-12-26T03:23:03;29.50;;;19.20;;
61356;SDS011;47227;46.752;23.576;2022-12-26T03:25:38;26.10;;;18.00;;
61356;SDS011;47227;46.752;23.576;2022-12-26T03:28:40;24.30;;;17.40;;
61356;SDS011;47227;46.752;23.576;2022-12-26T03:31:09;30.90;;;18.80;;
61356;SDS011;47227;46.752;23.576;2022-12-26T03:33:40;29.00;;;18.30;;
61356;SDS011;47227;46.752;23.576;2022-12-26T03:39:26;23.20;;;15.70;;
61356;SDS011;47227;46.752;23.576;2022-12-26T03:42:25;22.30;;;15.40;;
61356;SDS011;47227;46.752;23.576;2022-12-26T03:45:15;22.30;;;15.10;;
61356;SDS011;47227;46.752;23.576;2022-12-26T03:48:17;21.70;;;14.70;;
61356;SDS011;47227;46.752;23.576;2022-12-26T03:51:14;22.90;;;15.50;;
61356;SDS011;47227;46.752;23.576;2022-12-26T03:54:06;20.30;;;13.90;;
61356;SDS011;47227;46.752;23.576;2022-12-26T03:56:53;20.20;;;13.70;;
61356;SDS011;47227;46.752;23.576;2022-12-26T03:59:47;21.20;;;14.30;;
61356;SDS011;47227;46.752;23.576;2022-12-26T04:02:52;19.60;;;13.30;;
61356;SDS011;47227;46.752;23.576;2022-12-26T04:05:43;22.20;;;13.70;;
61356;SDS011;47227;46.752;23.576;2022-12-26T04:08:25;21.20;;;15.00;;
61356;SDS011;47227;46.752;23.576;2022-12-26T04:11:14;20.30;;;14.20;;
61356;SDS011;47227;46.752;23.576;2022-12-26T04:14:15;21.00;;;14.60;;
61356;SDS011;47227;46.752;23.576;2022-12-26T04:17:26;21.40;;;15.00;;
61356;SDS011;47227;46.752;23.576;2022-12-26T04:23:38;23.50;;;15.30;;
61356;SDS011;47227;46.752;23.576;2022-12-26T04:26:26;21.80;;;14.90;;
61356;SDS011;47227;46.752;23.576;2022-12-26T04:29:14;27.30;;;14.90;;
61356;SDS011;47227;46.752;23.576;2022-12-26T04:31:58;24.70;;;15.50;;
61356;SDS011;47227;46.752;23.576;2022-12-26T04:34:45;22.60;;;16.10;;
61356;SDS011;47227;46.752;23.576;2022-12-26T04:37:34;39.20;;;16.80;;
61356;SDS011;47227;46.752;23.576;2022-12-26T04:40:25;48.60;;;16.90;;
61356;SDS011;47227;46.752;23.576;2022-12-26T04:43:14;27.70;;;17.40;;
61356;SDS011;47227;46.752;23.576;2022-12-26T04:46:14;35.40;;;17.90;;
61356;SDS011;47227;46.752;23.576;2022-12-26T04:48:43;218.60;;;22.40;;
61356;SDS011;47227;46.752;23.576;2022-12-26T04:51:25;129.00;;;21.20;;
61356;SDS011;47227;46.752;23.576;2022-12-26T04:53:51;115.10;;;21.30;;
61356;SDS011;47227;46.752;23.576;2022-12-26T04:56:18;37.20;;;19.60;;
61356;SDS011;47227;46.752;23.576;2022-12-26T04:58:44;179.10;;;22.90;;
61356;SDS011;47227;46.752;23.576;2022-12-26T05:01:11;144.10;;;20.30;;
61356;SDS011;47227;46.752;23.576;2022-12-26T05:03:56;118.00;;;19.60;;
61356;SDS011;47227;46.752;23.576;2022-12-26T05:06:37;96.50;;;17.70;;
61356;SDS011;47227;46.752;23.576;2022-12-26T05:09:17;62.00;;;18.30;;
61356;SDS011;47227;46.752;23.576;2022-12-26T05:11:56;33.40;;;17.50;;
61356;SDS011;47227;46.752;23.576;2022-12-26T05:14:22;32.90;;;16.00;;
61356;SDS011;47227;46.752;23.576;2022-12-26T05:16:49;48.50;;;17.20;;
61356;SDS011;47227;46.752;23.576;2022-12-26T05:19:26;39.70;;;16.60;;
61356;SDS011;47227;46.752;23.576;2022-12-26T05:22:08;47.00;;;16.40;;
61356;SDS011;47227;46.752;23.576;2022-12-26T05:24:47;53.00;;;15.90;;
61356;SDS011;47227;46.752;23.576;2022-12-26T05:27:31;24.70;;;13.60;;
61356;SDS011;47227;46.752;23.576;2022-12-26T05:30:17;87.50;;;15.10;;
61356;SDS011;47227;46.752;23.576;2022-12-26T05:32:44;66.60;;;16.80;;
61356;SDS011;47227;46.752;23.576;2022-12-26T05:35:27;58.70;;;15.30;;
61356;SDS011;47227;46.752;23.576;2022-12-26T05:37:54;41.70;;;15.50;;
61356;SDS011;47227;46.752;23.576;2022-12-26T05:40:21;62.90;;;17.00;;
61356;SDS011;47227;46.752;23.576;2022-12-26T05:42:47;73.60;;;18.60;;
61356;SDS011;47227;46.752;23.576;2022-12-26T05:45:14;117.10;;;18.10;;
61356;SDS011;47227;46.752;23.576;2022-12-26T05:47:40;95.60;;;18.10;;
61356;SDS011;47227;46.752;23.576;2022-12-26T05:50:14;149.40;;;19.80;;
61356;SDS011;47227;46.752;23.576;2022-12-26T05:52:40;81.70;;;18.10;;
61356;SDS011;47227;46.752;23.576;2022-12-26T05:55:07;105.40;;;17.60;;
61356;SDS011;47227;46.752;23.576;2022-12-26T05:57:33;129.00;;;19.40;;
61356;SDS011;47227;46.752;23.576;2022-12-26T06:00:00;40.90;;;18.70;;
61356;SDS011;47227;46.752;23.576;2022-12-26T06:02:27;97.00;;;20.30;;
61356;SDS011;47227;46.752;23.576;2022-12-26T06:04:55;125.40;;;20.40;;
61356;SDS011;47227;46.752;23.576;2022-12-26T06:07:21;204.20;;;23.70;;
61356;SDS011;47227;46.752;23.576;2022-12-26T06:09:48;86.10;;;20.20;;
61356;SDS011;47227;46.752;23.576;2022-12-26T06:12:14;44.50;;;19.80;;
61356;SDS011;47227;46.752;23.576;2022-12-26T06:14:41;40.20;;;18.40;;
61356;SDS011;47227;46.752;23.576;2022-12-26T06:17:07;46.70;;;19.10;;
61356;SDS011;47227;46.752;23.576;2022-12-26T06:19:33;31.00;;;16.90;;
61356;SDS011;47227;46.752;23.576;2022-12-26T06:22:00;57.50;;;18.30;;
61356;SDS011;47227;46.752;23.576;2022-12-26T06:24:26;26.60;;;16.10;;
61356;SDS011;47227;46.752;23.576;2022-12-26T06:26:53;40.40;;;16.40;;
61356;SDS011;47227;46.752;23.576;2022-12-26T06:29:19;23.10;;;15.60;;
61356;SDS011;47227;46.752;23.576;2022-12-26T06:31:46;22.80;;;14.90;;
61356;SDS011;47227;46.752;23.576;2022-12-26T06:34:13;22.40;;;14.70;;
61356;SDS011;47227;46.752;23.576;2022-12-26T06:36:39;19.00;;;13.40;;
61356;SDS011;47227;46.752;23.576;2022-12-26T06:39:06;20.20;;;13.10;;
61356;SDS011;47227;46.752;23.576;2022-12-26T06:41:32;22.50;;;14.00;;
61356;SDS011;47227;46.752;23.576;2022-12-26T06:43:59;22.40;;;13.30;;
61356;SDS011;47227;46.752;23.576;2022-12-26T06:46:25;21.50;;;14.10;;
61356;SDS011;47227;46.752;23.576;2022-12-26T06:48:53;22.40;;;14.30;;
61356;SDS011;47227;46.752;23.576;2022-12-26T06:51:21;21.50;;;13.20;;
61356;SDS011;47227;46.752;23.576;2022-12-26T06:53:50;22.20;;;14.20;;
61356;SDS011;47227;46.752;23.576;2022-12-26T06:56:18;22.20;;;14.90;;
61356;SDS011;47227;46.752;23.576;2022-12-26T06:58:50;24.20;;;14.60;;
61356;SDS011;47227;46.752;23.576;2022-12-26T07:01:18;20.60;;;14.90;;
61356;SDS011;47227;46.752;23.576;2022-12-26T07:03:45;23.10;;;13.80;;
61356;SDS011;47227;46.752;23.576;2022-12-26T07:06:22;24.30;;;14.90;;
61356;SDS011;47227;46.752;23.576;2022-12-26T07:08:56;23.40;;;15.10;;
61356;SDS011;47227;46.752;23.576;2022-12-26T07:11:26;22.10;;;14.70;;
61356;SDS011;47227;46.752;23.576;2022-12-26T07:13:54;23.30;;;15.70;;
61356;SDS011;47227;46.752;23.576;2022-12-26T07:16:21;21.00;;;15.20;;
61356;SDS011;47227;46.752;23.576;2022-12-26T07:18:50;23.80;;;15.70;;
61356;SDS011;47227;46.752;23.576;2022-12-26T07:21:18;22.10;;;15.00;;
61356;SDS011;47227;46.752;23.576;2022-12-26T07:23:45;22.00;;;15.20;;
61356;SDS011;47227;46.752;23.576;2022-12-26T07:26:11;25.20;;;15.80;;
61356;SDS011;47227;46.752;23.576;2022-12-26T07:28:38;23.00;;;14.80;;
61356;SDS011;47227;46.752;23.576;2022-12-26T07:31:05;23.70;;;14.40;;
61356;SDS011;47227;46.752;23.576;2022-12-26T07:33:31;20.80;;;13.80;;
61356;SDS011;47227;46.752;23.576;2022-12-26T07:36:00;19.80;;;13.50;;
61356;SDS011;47227;46.752;23.576;2022-12-26T07:38:29;22.30;;;13.20;;
61356;SDS011;47227;46.752;23.576;2022-12-26T07:40:55;18.80;;;13.10;;
61356;SDS011;47227;46.752;23.576;2022-12-26T07:43:23;29.30;;;16.80;;
61356;SDS011;47227;46.752;23.576;2022-12-26T07:45:50;21.60;;;14.00;;
61356;SDS011;47227;46.752;23.576;2022-12-26T07:48:17;19.00;;;13.40;;
61356;SDS011;47227;46.752;23.576;2022-12-26T07:50:44;22.00;;;13.90;;
61356;SDS011;47227;46.752;23.576;2022-12-26T07:53:12;21.00;;;13.70;;
61356;SDS011;47227;46.752;23.576;2022-12-26T07:55:39;19.00;;;13.50;;
61356;SDS011;47227;46.752;23.576;2022-12-26T07:58:06;21.70;;;14.10;;
61356;SDS011;47227;46.752;23.576;2022-12-26T08:00:32;19.50;;;14.10;;
61356;SDS011;47227;46.752;23.576;2022-12-26T08:02:59;23.00;;;15.40;;
61356;SDS011;47227;46.752;23.576;2022-12-26T08:05:32;21.70;;;14.80;;
61356;SDS011;47227;46.752;23.576;2022-12-26T08:07:59;26.20;;;15.90;;
61356;SDS011;47227;46.752;23.576;2022-12-26T08:10:25;21.90;;;15.20;;
61356;SDS011;47227;46.752;23.576;2022-12-26T08:12:52;23.30;;;15.60;;
61356;SDS011;47227;46.752;23.576;2022-12-26T08:15:18;22.70;;;15.50;;
61356;SDS011;47227;46.752;23.576;2022-12-26T08:17:45;25.10;;;16.40;;
61356;SDS011;47227;46.752;23.576;2022-12-26T08:20:11;27.50;;;16.80;;
61356;SDS011;47227;46.752;23.576;2022-12-26T08:22:38;27.80;;;17.30;;
61356;SDS011;47227;46.752;23.576;2022-12-26T08:25:05;25.50;;;17.00;;
61356;SDS011;47227;46.752;23.576;2022-12-26T08:27:32;25.10;;;16.90;;
61356;SDS011;47227;46.752;23.576;2022-12-26T08:29:58;24.10;;;16.50;;
61356;SDS011;47227;46.752;23.576;2022-12-26T08:32:25;26.40;;;16.90;;
61356;SDS011;47227;46.752;23.576;2022-12-26T08:34:52;24.80;;;16.80;;
61356;SDS011;47227;46.752;23.576;2022-12-26T08:37:19;31.40;;;18.60;;
61356;SDS011;47227;46.752;23.576;2022-12-26T08:39:45;28.40;;;17.10;;
61356;SDS011;47227;46.752;23.576;2022-12-26T08:42:12;27.10;;;16.30;;
61356;SDS011;47227;46.752;23.576;2022-12-26T08:44:38;20.60;;;14.40;;
61356;SDS011;47227;46.752;23.576;2022-12-26T08:47:05;23.50;;;15.00;;
61356;SDS011;47227;46.752;23.576;2022-12-26T08:49:31;23.80;;;15.30;;
61356;SDS011;47227;46.752;23.576;2022-12-26T08:51:58;19.20;;;13.60;;
61356;SDS011;47227;46.752;23.576;2022-12-26T08:54:24;19.90;;;13.50;;
61356;SDS011;47227;46.752;23.576;2022-12-26T08:56:51;21.30;;;14.10;;
61356;SDS011;47227;46.752;23.576;2022-12-26T08:59:17;21.40;;;13.10;;
61356;SDS011;47227;46.752;23.576;2022-12-26T09:01:44;19.10;;;13.20;;
61356;SDS011;47227;46.752;23.576;2022-12-26T09:04:11;20.60;;;13.80;;
61356;SDS011;47227;46.752;23.576;2022-12-26T09:06:37;20.30;;;13.40;;
61356;SDS011;47227;46.752;23.576;2022-12-26T09:09:05;22.00;;;13.80;;
61356;SDS011;47227;46.752;23.576;2022-12-26T09:11:33;18.10;;;12.00;;
61356;SDS011;47227;46.752;23.576;2022-12-26T09:14:00;20.60;;;13.20;;
61356;SDS011;47227;46.752;23.576;2022-12-26T09:16:29;17.40;;;13.20;;
61356;SDS011;47227;46.752;23.576;2022-12-26T09:19:04;23.70;;;14.30;;
61356;SDS011;47227;46.752;23.576;2022-12-26T09:21:31;22.70;;;13.90;;
61356;SDS011;47227;46.752;23.576;2022-12-26T09:23:59;23.00;;;14.00;;
61356;SDS011;47227;46.752;23.576;2022-12-26T09:26:29;22.20;;;13.40;;
61356;SDS011;47227;46.752;23.576;2022-12-26T09:28:56;17.80;;;12.30;;
61356;SDS011;47227;46.752;23.576;2022-12-26T09:31:24;22.70;;;12.40;;
61356;SDS011;47227;46.752;23.576;2022-12-26T09:33:53;19.40;;;13.00;;
61356;SDS011;47227;46.752;23.576;2022-12-26T09:36:22;17.50;;;12.40;;
61356;SDS011;47227;46.752;23.576;2022-12-26T09:38:51;17.50;;;12.00;;
61356;SDS011;47227;46.752;23.576;2022-12-26T09:47:18;19.90;;;12.00;;
61356;SDS011;47227;46.752;23.576;2022-12-26T09:50:10;17.90;;;12.20;;
61356;SDS011;47227;46.752;23.576;2022-12-26T09:52:42;20.70;;;13.30;;
61356;SDS011;47227;46.752;23.576;2022-12-26T09:55:18;18.90;;;12.40;;
61356;SDS011;47227;46.752;23.576;2022-12-26T09:57:58;22.60;;;13.00;;
61356;SDS011;47227;46.752;23.576;2022-12-26T10:00:32;19.10;;;12.50;;
61356;SDS011;47227;46.752;23.576;2022-12-26T10:03:08;19.00;;;12.60;;
61356;SDS011;47227;46.752;23.576;2022-12-26T10:05:38;18.30;;;11.10;;
61356;SDS011;47227;46.752;23.576;2022-12-26T10:08:20;14.90;;;11.00;;
61356;SDS011;47227;46.752;23.576;2022-12-26T10:10:57;17.10;;;10.20;;
61356;SDS011;47227;46.752;23.576;2022-12-26T10:13:32;15.40;;;9.70;;
61356;SDS011;47227;46.752;23.576;2022-12-26T10:16:07;12.70;;;8.90;;
61356;SDS011;47227;46.752;23.576;2022-12-26T10:18:52;12.10;;;8.60;;
61356;SDS011;47227;46.752;23.576;2022-12-26T10:21:39;12.00;;;7.90;;
61356;SDS011;47227;46.752;23.576;2022-12-26T10:24:17;9.10;;;7.00;;
61356;SDS011;47227;46.752;23.576;2022-12-26T10:26:48;16.30;;;7.30;;
61356;SDS011;47227;46.752;23.576;2022-12-26T10:29:26;14.60;;;7.10;;
61356;SDS011;47227;46.752;23.576;2022-12-26T10:32:00;10.30;;;6.70;;
61356;SDS011;47227;46.752;23.576;2022-12-26T10:34:34;9.90;;;6.40;;
61356;SDS011;47227;46.752;23.576;2022-12-26T10:37:23;10.30;;;6.70;;
61356;SDS011;47227;46.752;23.576;2022-12-26T10:39:55;9.90;;;6.10;;
61356;SDS011;47227;46.752;23.576;2022-12-26T10:42:40;13.80;;;6.20;;
61356;SDS011;47227;46.752;23.576;2022-12-26T10:45:19;9.00;;;6.60;;
61356;SDS011;47227;46.752;23.576;2022-12-26T10:48:04;14.60;;;6.90;;
61356;SDS011;47227;46.752;23.576;2022-12-26T10:50:31;11.30;;;7.90;;
61356;SDS011;47227;46.752;23.576;2022-12-26T10:53:00;9.90;;;7.50;;
61356;SDS011;47227;46.752;23.576;2022-12-26T10:55:31;9.70;;;6.90;;
61356;SDS011;47227;46.752;23.576;2022-12-26T11:00:43;10.30;;;7.70;;
61356;SDS011;47227;46.752;23.576;2022-12-26T11:03:11;12.00;;;8.10;;
61356;SDS011;47227;46.752;23.576;2022-12-26T11:05:42;12.10;;;7.70;;
61356;SDS011;47227;46.752;23.576;2022-12-26T11:08:34;28.10;;;8.60;;
61356;SDS011;47227;46.752;23.576;2022-12-26T11:11:12;9.30;;;8.10;;
61356;SDS011;47227;46.752;23.576;2022-12-26T11:13:46;15.90;;;8.60;;
61356;SDS011;47227;46.752;23.576;2022-12-26T11:16:25;11.50;;;8.00;;
61356;SDS011;47227;46.752;23.576;2022-12-26T11:18:55;11.50;;;8.40;;
61356;SDS011;47227;46.752;23.576;2022-12-26T11:21:24;12.70;;;8.90;;
61356;SDS011;47227;46.752;23.576;2022-12-26T11:26:41;12.50;;;8.50;;
61356;SDS011;47227;46.752;23.576;2022-12-26T11:29:10;9.40;;;7.80;;
61356;SDS011;47227;46.752;23.576;2022-12-26T11:31:48;9.80;;;8.10;;
61356;SDS011;47227;46.752;23.576;2022-12-26T11:34:20;8.90;;;7.50;;
61356;SDS011;47227;46.752;23.576;2022-12-26T11:36:54;10.00;;;6.50;;
61356;SDS011;47227;46.752;23.576;2022-12-26T11:39:21;8.40;;;7.50;;
61356;SDS011;47227;46.752;23.576;2022-12-26T11:41:52;7.70;;;6.90;;
61356;SDS011;47227;46.752;23.576;2022-12-26T11:44:34;9.50;;;7.30;;
61356;SDS011;47227;46.752;23.576;2022-12-26T11:47:07;15.90;;;7.20;;
61356;SDS011;47227;46.752;23.576;2022-12-26T11:49:44;9.00;;;7.30;;
61356;SDS011;47227;46.752;23.576;2022-12-26T11:52:36;11.00;;;7.60;;
61356;SDS011;47227;46.752;23.576;2022-12-26T12:01:02;14.20;;;7.60;;
61356;SDS011;47227;46.752;23.576;2022-12-26T12:03:34;10.20;;;7.20;;
61356;SDS011;47227;46.752;23.576;2022-12-26T12:06:17;8.30;;;7.40;;
61356;SDS011;47227;46.752;23.576;2022-12-26T12:09:03;13.30;;;7.90;;
61356;SDS011;47227;46.752;23.576;2022-12-26T12:14:44;9.00;;;7.30;;
61356;SDS011;47227;46.752;23.576;2022-12-26T12:26:09;9.80;;;8.00;;
61356;SDS011;47227;46.752;23.576;2022-12-26T12:31:37;15.70;;;8.20;;
61356;SDS011;47227;46.752;23.576;2022-12-26T12:37:20;10.80;;;8.10;;
61356;SDS011;47227;46.752;23.576;2022-12-26T12:40:01;11.70;;;8.50;;
61356;SDS011;47227;46.752;23.576;2022-12-26T12:45:37;11.30;;;8.90;;
61356;SDS011;47227;46.752;23.576;2022-12-26T12:48:24;13.60;;;8.90;;
61356;SDS011;47227;46.752;23.576;2022-12-26T12:51:09;11.30;;;9.20;;
61356;SDS011;47227;46.752;23.576;2022-12-26T12:56:48;15.10;;;9.40;;
61356;SDS011;47227;46.752;23.576;2022-12-26T12:59:47;15.20;;;9.20;;
61356;SDS011;47227;46.752;23.576;2022-12-26T13:02:22;12.80;;;9.00;;
61356;SDS011;47227;46.752;23.576;2022-12-26T13:04:58;17.50;;;10.10;;
61356;SDS011;47227;46.752;23.576;2022-12-26T13:07:34;20.60;;;9.90;;
61356;SDS011;47227;46.752;23.576;2022-12-26T13:10:18;13.80;;;9.60;;
61356;SDS011;47227;46.752;23.576;2022-12-26T13:12:49;18.10;;;10.70;;
61356;SDS011;47227;46.752;23.576;2022-12-26T13:15:28;15.50;;;10.50;;
61356;SDS011;47227;46.752;23.576;2022-12-26T13:18:02;17.60;;;10.10;;
61356;SDS011;47227;46.752;23.576;2022-12-26T13:20:37;26.40;;;10.30;;
61356;SDS011;47227;46.752;23.576;2022-12-26T13:26:19;17.60;;;10.30;;
61356;SDS011;47227;46.752;23.576;2022-12-26T13:28:56;16.00;;;10.60;;
61356;SDS011;47227;46.752;23.576;2022-12-26T13:31:33;13.40;;;9.90;;
61356;SDS011;47227;46.752;23.576;2022-12-26T13:34:01;19.20;;;10.40;;
61356;SDS011;47227;46.752;23.576;2022-12-26T13:39:17;15.80;;;10.00;;
61356;SDS011;47227;46.752;23.576;2022-12-26T13:42:02;16.70;;;9.50;;
61356;SDS011;47227;46.752;23.576;2022-12-26T13:45:37;13.90;;;9.30;;
61356;SDS011;47227;46.752;23.576;2022-12-26T13:54:08;17.10;;;10.10;;
61356;SDS011;47227;46.752;23.576;2022-12-26T13:59:35;21.80;;;11.00;;
61356;SDS011;47227;46.752;23.576;2022-12-26T14:02:16;18.80;;;10.70;;
61356;SDS011;47227;46.752;23.576;2022-12-26T14:05:33;16.90;;;8.70;;
61356;SDS011;47227;46.752;23.576;2022-12-26T14:08:30;23.50;;;10.00;;
61356;SDS011;47227;46.752;23.576;2022-12-26T14:14:18;19.20;;;10.80;;
61356;SDS011;47227;46.752;23.576;2022-12-26T14:17:10;17.90;;;11.20;;
61356;SDS011;47227;46.752;23.576;2022-12-26T14:23:06;14.70;;;10.30;;
61356;SDS011;47227;46.752;23.576;2022-12-26T14:25:58;15.40;;;10.40;;
61356;SDS011;47227;46.752;23.576;2022-12-26T14:28:50;18.00;;;10.70;;
61356;SDS011;47227;46.752;23.576;2022-12-26T14:31:34;20.10;;;10.70;;
61356;SDS011;47227;46.752;23.576;2022-12-26T14:37:17;17.50;;;10.80;;
61356;SDS011;47227;46.752;23.576;2022-12-26T14:45:53;21.80;;;11.90;;
61356;SDS011;47227;46.752;23.576;2022-12-26T14:54:15;20.70;;;13.00;;
61356;SDS011;47227;46.752;23.576;2022-12-26T14:56:56;17.50;;;12.20;;
61356;SDS011;47227;46.752;23.576;2022-12-26T14:59:30;19.70;;;13.00;;
61356;SDS011;47227;46.752;23.576;2022-12-26T15:02:00;16.80;;;12.00;;
61356;SDS011;47227;46.752;23.576;2022-12-26T15:04:43;19.30;;;13.40;;
61356;SDS011;47227;46.752;23.576;2022-12-26T15:07:33;19.60;;;13.00;;
61356;SDS011;47227;46.752;23.576;2022-12-26T15:10:29;20.20;;;13.60;;
61356;SDS011;47227;46.752;23.576;2022-12-26T15:13:21;19.80;;;13.60;;
61356;SDS011;47227;46.752;23.576;2022-12-26T15:16:09;19.90;;;13.30;;
61356;SDS011;47227;46.752;23.576;2022-12-26T15:19:02;21.60;;;13.70;;
61356;SDS011;47227;46.752;23.576;2022-12-26T15:21:59;30.00;;;15.50;;
61356;SDS011;47227;46.752;23.576;2022-12-26T15:25:00;27.70;;;14.90;;
61356;SDS011;47227;46.752;23.576;2022-12-26T15:33:47;27.10;;;16.10;;
61356;SDS011;47227;46.752;23.576;2022-12-26T15:36:30;26.60;;;16.20;;
61356;SDS011;47227;46.752;23.576;2022-12-26T15:39:16;28.60;;;15.20;;
61356;SDS011;47227;46.752;23.576;2022-12-26T15:42:16;24.70;;;15.90;;
61356;SDS011;47227;46.752;23.576;2022-12-26T15:47:42;29.40;;;18.80;;
61356;SDS011;47227;46.752;23.576;2022-12-26T15:50:28;24.50;;;16.50;;
61356;SDS011;47227;46.752;23.576;2022-12-26T15:53:07;23.50;;;14.80;;
61356;SDS011;47227;46.752;23.576;2022-12-26T15:55:52;26.40;;;16.80;;
61356;SDS011;47227;46.752;23.576;2022-12-26T15:58:33;22.00;;;15.00;;
61356;SDS011;47227;46.752;23.576;2022-12-26T16:01:11;27.70;;;16.00;;
61356;SDS011;47227;46.752;23.576;2022-12-26T16:03:41;24.90;;;15.90;;
61356;SDS011;47227;46.752;23.576;2022-12-26T16:12:21;24.70;;;16.10;;
61356;SDS011;47227;46.752;23.576;2022-12-26T16:15:13;35.70;;;21.20;;
61356;SDS011;47227;46.752;23.576;2022-12-26T16:17:42;34.10;;;21.20;;
61356;SDS011;47227;46.752;23.576;2022-12-26T16:20:16;31.00;;;20.80;;
61356;SDS011;47227;46.752;23.576;2022-12-26T16:23:12;33.40;;;21.00;;
61356;SDS011;47227;46.752;23.576;2022-12-26T16:25:45;33.10;;;20.10;;
61356;SDS011;47227;46.752;23.576;2022-12-26T16:28:13;32.00;;;19.60;;
61356;SDS011;47227;46.752;23.576;2022-12-26T16:30:41;34.20;;;19.40;;
61356;SDS011;47227;46.752;23.576;2022-12-26T16:33:09;28.40;;;20.20;;
61356;SDS011;47227;46.752;23.576;2022-12-26T16:35:39;33.10;;;21.40;;
61356;SDS011;47227;46.752;23.576;2022-12-26T16:38:16;29.30;;;20.30;;
61356;SDS011;47227;46.752;23.576;2022-12-26T16:40:49;31.20;;;19.80;;
61356;SDS011;47227;46.752;23.576;2022-12-26T16:43:22;33.70;;;21.50;;
61356;SDS011;47227;46.752;23.576;2022-12-26T16:45:51;31.70;;;20.80;;
61356;SDS011;47227;46.752;23.576;2022-12-26T16:48:22;33.80;;;21.70;;
61356;SDS011;47227;46.752;23.576;2022-12-26T16:50:52;38.50;;;24.20;;
61356;SDS011;47227;46.752;23.576;2022-12-26T16:53:26;42.10;;;26.50;;